sensor_id;sensor_type;location;lat;lon;timestamp;P1;durP1;ratioP1;P2;durP2;ratioP2
34900;SDS011;21112;51.976;5.660;2023-04-06T00:00:23;11.68;;;4.70;;
34900;SDS011;21112;51.976;5.660;2023-04-06T00:02:50;12.02;;;4.68;;
34900;SDS011;21112;51.976;5.660;2023-04-06T00:05:17;11.75;;;5.22;;
34900;SDS011;21112;51.976;5.660;2023-04-06T00:07:44;11.57;;;4.70;;
34900;SDS011;21112;51.976;5.660;2023-04-06T00:10:10;11.45;;;5.13;;
34900;SDS011;21112;51.976;5.660;2023-04-06T00:12:37;12.27;;;4.55;;
34900;SDS011;21112;51.976;5.660;2023-04-06T00:15:04;11.98;;;4.70;;
34900;SDS011;21112;51.976;5.660;2023-04-06T00:17:33;11.48;;;5.35;;
34900;SDS011;21112;51.976;5.660;2023-04-06T00:20:00;10.30;;;4.38;;
34900;SDS011;21112;51.976;5.660;2023-04-06T00:22:27;10.50;;;4.20;;
34900;SDS011;21112;51.976;5.660;2023-04-06T00:24:53;10.85;;;4.88;;
34900;SDS011;21112;51.976;5.660;2023-04-06T00:27:20;10.13;;;4.53;;
34900;SDS011;21112;51.976;5.660;2023-04-06T00:29:47;10.63;;;4.70;;
34900;SDS011;21112;51.976;5.660;2023-04-06T00:32:13;11.50;;;4.80;;
34900;SDS011;21112;51.976;5.660;2023-04-06T00:34:42;11.98;;;4.25;;
34900;SDS011;21112;51.976;5.660;2023-04-06T00:37:08;10.52;;;4.40;;
34900;SDS011;21112;51.976;5.660;2023-04-06T00:39:35;10.90;;;4.60;;
34900;SDS011;21112;51.976;5.660;2023-04-06T00:42:02;10.75;;;4.38;;
34900;SDS011;21112;51.976;5.660;2023-04-06T00:44:33;11.32;;;4.82;;
34900;SDS011;21112;51.976;5.660;2023-04-06T00:47:00;12.35;;;4.47;;
34900;SDS011;21112;51.976;5.660;2023-04-06T00:49:26;10.43;;;4.43;;
34900;SDS011;21112;51.976;5.660;2023-04-06T00:51:54;9.35;;;4.53;;
34900;SDS011;21112;51.976;5.660;2023-04-06T00:54:21;11.25;;;4.38;;
34900;SDS011;21112;51.976;5.660;2023-04-06T00:56:48;11.10;;;4.47;;
34900;SDS011;21112;51.976;5.660;2023-04-06T00:59:15;12.90;;;5.10;;
34900;SDS011;21112;51.976;5.660;2023-04-06T01:01:41;11.68;;;4.53;;
34900;SDS011;21112;51.976;5.660;2023-04-06T01:04:08;10.98;;;4.25;;
34900;SDS011;21112;51.976;5.660;2023-04-06T01:06:35;10.13;;;4.45;;
34900;SDS011;21112;51.976;5.660;2023-04-06T01:09:03;10.07;;;4.38;;
34900;SDS011;21112;51.976;5.660;2023-04-06T01:11:30;10.15;;;4.35;;
34900;SDS011;21112;51.976;5.660;2023-04-06T01:13:56;9.35;;;4.32;;
34900;SDS011;21112;51.976;5.660;2023-04-06T01:16:23;10.75;;;4.68;;
34900;SDS011;21112;51.976;5.660;2023-04-06T01:18:50;9.18;;;4.60;;
34900;SDS011;21112;51.976;5.660;2023-04-06T01:21:17;9.73;;;4.35;;
34900;SDS011;21112;51.976;5.660;2023-04-06T01:23:45;11.25;;;4.40;;
34900;SDS011;21112;51.976;5.660;2023-04-06T01:26:12;13.10;;;4.30;;
34900;SDS011;21112;51.976;5.660;2023-04-06T01:28:38;8.40;;;4.20;;
34900;SDS011;21112;51.976;5.660;2023-04-06T01:31:05;9.43;;;3.92;;
34900;SDS011;21112;51.976;5.660;2023-04-06T01:33:32;9.93;;;4.32;;
34900;SDS011;21112;51.976;5.660;2023-04-06T01:35:59;11.98;;;4.30;;
34900;SDS011;21112;51.976;5.660;2023-04-06T01:38:26;8.50;;;4.03;;
34900;SDS011;21112;51.976;5.660;2023-04-06T01:40:54;10.98;;;4.78;;
34900;SDS011;21112;51.976;5.660;2023-04-06T01:43:21;10.32;;;4.15;;
34900;SDS011;21112;51.976;5.660;2023-04-06T01:45:48;8.45;;;3.90;;
34900;SDS011;21112;51.976;5.660;2023-04-06T01:48:15;10.13;;;4.35;;
34900;SDS011;21112;51.976;5.660;2023-04-06T01:50:41;8.10;;;4.03;;
34900;SDS011;21112;51.976;5.660;2023-04-06T01:53:08;9.73;;;4.28;;
34900;SDS011;21112;51.976;5.660;2023-04-06T01:55:35;10.13;;;4.18;;
34900;SDS011;21112;51.976;5.660;2023-04-06T01:58:03;11.65;;;4.95;;
34900;SDS011;21112;51.976;5.660;2023-04-06T02:00:30;11.20;;;4.30;;
34900;SDS011;21112;51.976;5.660;2023-04-06T02:02:56;9.45;;;4.00;;
34900;SDS011;21112;51.976;5.660;2023-04-06T02:05:24;10.75;;;4.35;;
34900;SDS011;21112;51.976;5.660;2023-04-06T02:07:51;9.25;;;4.22;;
34900;SDS011;21112;51.976;5.660;2023-04-06T02:10:18;8.70;;;3.67;;
34900;SDS011;21112;51.976;5.660;2023-04-06T02:12:44;10.57;;;4.30;;
34900;SDS011;21112;51.976;5.660;2023-04-06T02:15:12;10.80;;;4.35;;
34900;SDS011;21112;51.976;5.660;2023-04-06T02:17:39;10.10;;;4.43;;
34900;SDS011;21112;51.976;5.660;2023-04-06T02:20:06;10.15;;;3.97;;
34900;SDS011;21112;51.976;5.660;2023-04-06T02:22:34;9.27;;;4.20;;
34900;SDS011;21112;51.976;5.660;2023-04-06T02:25:00;11.38;;;4.97;;
34900;SDS011;21112;51.976;5.660;2023-04-06T02:27:27;8.50;;;4.03;;
34900;SDS011;21112;51.976;5.660;2023-04-06T02:30:03;10.45;;;4.05;;
34900;SDS011;21112;51.976;5.660;2023-04-06T02:32:31;9.75;;;3.78;;
34900;SDS011;21112;51.976;5.660;2023-04-06T02:34:58;9.05;;;3.83;;
34900;SDS011;21112;51.976;5.660;2023-04-06T02:37:25;9.05;;;4.07;;
34900;SDS011;21112;51.976;5.660;2023-04-06T02:39:51;9.40;;;4.20;;
34900;SDS011;21112;51.976;5.660;2023-04-06T02:42:18;10.73;;;4.18;;
34900;SDS011;21112;51.976;5.660;2023-04-06T02:44:45;8.48;;;3.83;;
34900;SDS011;21112;51.976;5.660;2023-04-06T02:47:11;9.73;;;4.13;;
34900;SDS011;21112;51.976;5.660;2023-04-06T02:49:39;12.27;;;4.72;;
34900;SDS011;21112;51.976;5.660;2023-04-06T02:52:06;9.35;;;3.92;;
34900;SDS011;21112;51.976;5.660;2023-04-06T02:54:33;10.73;;;3.70;;
34900;SDS011;21112;51.976;5.660;2023-04-06T02:56:59;11.05;;;4.20;;
34900;SDS011;21112;51.976;5.660;2023-04-06T02:59:26;12.48;;;5.05;;
34900;SDS011;21112;51.976;5.660;2023-04-06T03:01:52;11.90;;;4.40;;
34900;SDS011;21112;51.976;5.660;2023-04-06T03:04:19;9.52;;;4.13;;
34900;SDS011;21112;51.976;5.660;2023-04-06T03:06:49;9.32;;;4.28;;
34900;SDS011;21112;51.976;5.660;2023-04-06T03:09:16;10.63;;;4.80;;
34900;SDS011;21112;51.976;5.660;2023-04-06T03:11:42;10.63;;;4.63;;
34900;SDS011;21112;51.976;5.660;2023-04-06T03:14:09;8.82;;;4.35;;
34900;SDS011;21112;51.976;5.660;2023-04-06T03:16:36;11.60;;;4.43;;
34900;SDS011;21112;51.976;5.660;2023-04-06T03:19:02;11.38;;;4.72;;
34900;SDS011;21112;51.976;5.660;2023-04-06T03:21:29;11.63;;;4.60;;
34900;SDS011;21112;51.976;5.660;2023-04-06T03:23:58;11.70;;;4.35;;
34900;SDS011;21112;51.976;5.660;2023-04-06T03:26:24;11.70;;;4.50;;
34900;SDS011;21112;51.976;5.660;2023-04-06T03:28:51;11.93;;;4.47;;
34900;SDS011;21112;51.976;5.660;2023-04-06T03:31:18;12.13;;;4.60;;
34900;SDS011;21112;51.976;5.660;2023-04-06T03:33:44;11.40;;;4.70;;
34900;SDS011;21112;51.976;5.660;2023-04-06T03:36:11;10.45;;;4.43;;
34900;SDS011;21112;51.976;5.660;2023-04-06T03:38:40;11.35;;;4.43;;
34900;SDS011;21112;51.976;5.660;2023-04-06T03:41:08;9.70;;;3.97;;
34900;SDS011;21112;51.976;5.660;2023-04-06T03:43:35;9.15;;;3.90;;
34900;SDS011;21112;51.976;5.660;2023-04-06T03:46:01;10.80;;;4.45;;
34900;SDS011;21112;51.976;5.660;2023-04-06T03:48:28;10.75;;;3.95;;
34900;SDS011;21112;51.976;5.660;2023-04-06T03:50:55;10.50;;;4.45;;
34900;SDS011;21112;51.976;5.660;2023-04-06T03:53:22;9.40;;;3.92;;
34900;SDS011;21112;51.976;5.660;2023-04-06T03:55:48;11.93;;;4.97;;
34900;SDS011;21112;51.976;5.660;2023-04-06T03:58:17;10.88;;;4.03;;
34900;SDS011;21112;51.976;5.660;2023-04-06T04:00:45;13.57;;;4.85;;
34900;SDS011;21112;51.976;5.660;2023-04-06T04:03:12;13.85;;;4.43;;
34900;SDS011;21112;51.976;5.660;2023-04-06T04:05:38;9.20;;;4.32;;
34900;SDS011;21112;51.976;5.660;2023-04-06T04:08:05;10.55;;;4.20;;
34900;SDS011;21112;51.976;5.660;2023-04-06T04:10:32;11.77;;;4.45;;
34900;SDS011;21112;51.976;5.660;2023-04-06T04:12:58;11.35;;;5.15;;
34900;SDS011;21112;51.976;5.660;2023-04-06T04:15:26;10.50;;;4.20;;
34900;SDS011;21112;51.976;5.660;2023-04-06T04:17:53;12.02;;;4.63;;
34900;SDS011;21112;51.976;5.660;2023-04-06T04:20:20;9.20;;;3.97;;
34900;SDS011;21112;51.976;5.660;2023-04-06T04:22:47;13.23;;;4.57;;
34900;SDS011;21112;51.976;5.660;2023-04-06T04:25:13;12.77;;;5.00;;
34900;SDS011;21112;51.976;5.660;2023-04-06T04:27:40;10.35;;;4.45;;
34900;SDS011;21112;51.976;5.660;2023-04-06T04:30:07;11.65;;;4.55;;
34900;SDS011;21112;51.976;5.660;2023-04-06T04:32:35;11.50;;;4.60;;
34900;SDS011;21112;51.976;5.660;2023-04-06T04:35:02;9.75;;;4.70;;
34900;SDS011;21112;51.976;5.660;2023-04-06T04:37:29;10.77;;;4.40;;
34900;SDS011;21112;51.976;5.660;2023-04-06T04:39:58;10.50;;;4.63;;
34900;SDS011;21112;51.976;5.660;2023-04-06T04:42:25;11.30;;;4.80;;
34900;SDS011;21112;51.976;5.660;2023-04-06T04:44:51;11.05;;;4.75;;
34900;SDS011;21112;51.976;5.660;2023-04-06T04:47:18;10.35;;;5.00;;
34900;SDS011;21112;51.976;5.660;2023-04-06T04:49:46;13.05;;;5.35;;
34900;SDS011;21112;51.976;5.660;2023-04-06T04:52:13;10.15;;;4.60;;
34900;SDS011;21112;51.976;5.660;2023-04-06T04:54:40;9.98;;;4.70;;
34900;SDS011;21112;51.976;5.660;2023-04-06T04:57:14;12.70;;;5.38;;
34900;SDS011;21112;51.976;5.660;2023-04-06T04:59:40;12.95;;;5.18;;
34900;SDS011;21112;51.976;5.660;2023-04-06T05:02:07;11.02;;;4.88;;
34900;SDS011;21112;51.976;5.660;2023-04-06T05:04:36;11.70;;;4.55;;
34900;SDS011;21112;51.976;5.660;2023-04-06T05:07:05;11.77;;;5.22;;
34900;SDS011;21112;51.976;5.660;2023-04-06T05:09:32;12.48;;;5.30;;
34900;SDS011;21112;51.976;5.660;2023-04-06T05:11:59;14.57;;;5.22;;
34900;SDS011;21112;51.976;5.660;2023-04-06T05:14:26;11.52;;;5.10;;
34900;SDS011;21112;51.976;5.660;2023-04-06T05:16:53;12.48;;;5.40;;
34900;SDS011;21112;51.976;5.660;2023-04-06T05:19:20;10.73;;;4.65;;
34900;SDS011;21112;51.976;5.660;2023-04-06T05:21:46;10.95;;;4.55;;
34900;SDS011;21112;51.976;5.660;2023-04-06T05:24:14;12.52;;;5.35;;
34900;SDS011;21112;51.976;5.660;2023-04-06T05:26:41;13.93;;;5.63;;
34900;SDS011;21112;51.976;5.660;2023-04-06T05:29:08;12.25;;;5.03;;
34900;SDS011;21112;51.976;5.660;2023-04-06T05:31:39;11.52;;;4.78;;
34900;SDS011;21112;51.976;5.660;2023-04-06T05:34:08;13.02;;;5.25;;
34900;SDS011;21112;51.976;5.660;2023-04-06T05:36:35;11.48;;;5.20;;
34900;SDS011;21112;51.976;5.660;2023-04-06T05:39:02;14.13;;;5.50;;
34900;SDS011;21112;51.976;5.660;2023-04-06T05:41:30;13.43;;;5.85;;
34900;SDS011;21112;51.976;5.660;2023-04-06T05:43:57;11.00;;;4.40;;
34900;SDS011;21112;51.976;5.660;2023-04-06T05:46:26;15.57;;;4.95;;
34900;SDS011;21112;51.976;5.660;2023-04-06T05:49:02;13.48;;;5.82;;
34900;SDS011;21112;51.976;5.660;2023-04-06T05:51:28;14.60;;;5.65;;
34900;SDS011;21112;51.976;5.660;2023-04-06T05:53:59;11.95;;;5.78;;
34900;SDS011;21112;51.976;5.660;2023-04-06T05:56:30;13.68;;;5.60;;
34900;SDS011;21112;51.976;5.660;2023-04-06T05:58:57;11.65;;;5.43;;
34900;SDS011;21112;51.976;5.660;2023-04-06T06:01:23;12.35;;;5.18;;
34900;SDS011;21112;51.976;5.660;2023-04-06T06:03:50;12.40;;;5.25;;
34900;SDS011;21112;51.976;5.660;2023-04-06T06:06:20;13.52;;;5.72;;
34900;SDS011;21112;51.976;5.660;2023-04-06T06:08:49;15.68;;;5.90;;
34900;SDS011;21112;51.976;5.660;2023-04-06T06:11:19;11.77;;;5.45;;
34900;SDS011;21112;51.976;5.660;2023-04-06T06:13:47;14.27;;;6.03;;
34900;SDS011;21112;51.976;5.660;2023-04-06T06:16:14;12.55;;;5.55;;
34900;SDS011;21112;51.976;5.660;2023-04-06T06:18:40;12.77;;;5.45;;
34900;SDS011;21112;51.976;5.660;2023-04-06T06:21:07;17.42;;;6.00;;
34900;SDS011;21112;51.976;5.660;2023-04-06T06:23:34;15.52;;;6.50;;
34900;SDS011;21112;51.976;5.660;2023-04-06T06:26:04;13.88;;;5.70;;
34900;SDS011;21112;51.976;5.660;2023-04-06T06:28:35;15.30;;;6.18;;
34900;SDS011;21112;51.976;5.660;2023-04-06T06:31:04;18.85;;;6.50;;
34900;SDS011;21112;51.976;5.660;2023-04-06T06:33:30;15.75;;;5.93;;
34900;SDS011;21112;51.976;5.660;2023-04-06T06:35:57;16.55;;;7.03;;
34900;SDS011;21112;51.976;5.660;2023-04-06T06:38:26;15.40;;;6.30;;
34900;SDS011;21112;51.976;5.660;2023-04-06T06:40:53;15.80;;;6.38;;
34900;SDS011;21112;51.976;5.660;2023-04-06T06:43:20;16.00;;;6.38;;
34900;SDS011;21112;51.976;5.660;2023-04-06T06:45:47;16.27;;;7.07;;
34900;SDS011;21112;51.976;5.660;2023-04-06T06:50:43;12.40;;;5.97;;
34900;SDS011;21112;51.976;5.660;2023-04-06T06:53:10;13.18;;;6.03;;
34900;SDS011;21112;51.976;5.660;2023-04-06T06:55:37;17.65;;;6.93;;
34900;SDS011;21112;51.976;5.660;2023-04-06T06:58:04;14.85;;;6.50;;
34900;SDS011;21112;51.976;5.660;2023-04-06T07:00:31;15.35;;;7.13;;
34900;SDS011;21112;51.976;5.660;2023-04-06T07:03:03;17.25;;;7.00;;
34900;SDS011;21112;51.976;5.660;2023-04-06T07:05:31;14.65;;;6.40;;
34900;SDS011;21112;51.976;5.660;2023-04-06T07:08:03;16.77;;;7.43;;
34900;SDS011;21112;51.976;5.660;2023-04-06T07:10:34;14.63;;;6.28;;
34900;SDS011;21112;51.976;5.660;2023-04-06T07:13:08;14.35;;;6.53;;
34900;SDS011;21112;51.976;5.660;2023-04-06T07:15:36;14.90;;;7.00;;
34900;SDS011;21112;51.976;5.660;2023-04-06T07:18:03;16.40;;;7.30;;
34900;SDS011;21112;51.976;5.660;2023-04-06T07:20:32;17.75;;;7.40;;
34900;SDS011;21112;51.976;5.660;2023-04-06T07:22:59;17.00;;;7.20;;
34900;SDS011;21112;51.976;5.660;2023-04-06T07:25:29;17.80;;;7.18;;
34900;SDS011;21112;51.976;5.660;2023-04-06T07:27:56;17.40;;;7.65;;
34900;SDS011;21112;51.976;5.660;2023-04-06T07:30:26;19.35;;;8.10;;
34900;SDS011;21112;51.976;5.660;2023-04-06T07:32:57;19.80;;;7.95;;
34900;SDS011;21112;51.976;5.660;2023-04-06T07:35:25;16.40;;;7.63;;
34900;SDS011;21112;51.976;5.660;2023-04-06T07:37:52;16.75;;;7.22;;
34900;SDS011;21112;51.976;5.660;2023-04-06T07:40:19;20.17;;;7.60;;
34900;SDS011;21112;51.976;5.660;2023-04-06T07:42:48;16.42;;;7.50;;
34900;SDS011;21112;51.976;5.660;2023-04-06T07:45:15;19.25;;;8.25;;
34900;SDS011;21112;51.976;5.660;2023-04-06T07:47:42;15.65;;;7.30;;
34900;SDS011;21112;51.976;5.660;2023-04-06T07:50:11;17.10;;;7.63;;
34900;SDS011;21112;51.976;5.660;2023-04-06T07:52:38;20.33;;;8.23;;
34900;SDS011;21112;51.976;5.660;2023-04-06T07:55:05;20.45;;;8.35;;
34900;SDS011;21112;51.976;5.660;2023-04-06T07:57:33;16.52;;;7.78;;
34900;SDS011;21112;51.976;5.660;2023-04-06T08:00:02;20.30;;;7.95;;
34900;SDS011;21112;51.976;5.660;2023-04-06T08:02:31;15.80;;;7.10;;
34900;SDS011;21112;51.976;5.660;2023-04-06T08:04:57;18.77;;;8.18;;
34900;SDS011;21112;51.976;5.660;2023-04-06T08:07:25;20.98;;;7.65;;
34900;SDS011;21112;51.976;5.660;2023-04-06T08:09:56;16.63;;;7.45;;
34900;SDS011;21112;51.976;5.660;2023-04-06T08:12:29;20.38;;;8.43;;
34900;SDS011;21112;51.976;5.660;2023-04-06T08:14:56;19.10;;;8.15;;
34900;SDS011;21112;51.976;5.660;2023-04-06T08:17:28;19.52;;;8.23;;
34900;SDS011;21112;51.976;5.660;2023-04-06T08:19:59;19.23;;;8.27;;
34900;SDS011;21112;51.976;5.660;2023-04-06T08:22:32;20.17;;;7.95;;
34900;SDS011;21112;51.976;5.660;2023-04-06T08:24:59;16.50;;;7.72;;
34900;SDS011;21112;51.976;5.660;2023-04-06T08:27:25;17.27;;;7.78;;
34900;SDS011;21112;51.976;5.660;2023-04-06T08:29:59;18.83;;;8.27;;
34900;SDS011;21112;51.976;5.660;2023-04-06T08:32:30;18.48;;;8.43;;
34900;SDS011;21112;51.976;5.660;2023-04-06T08:34:57;17.90;;;7.65;;
34900;SDS011;21112;51.976;5.660;2023-04-06T08:37:24;18.60;;;7.97;;
34900;SDS011;21112;51.976;5.660;2023-04-06T08:40:00;18.10;;;8.93;;
34900;SDS011;21112;51.976;5.660;2023-04-06T08:42:28;21.65;;;8.57;;
34900;SDS011;21112;51.976;5.660;2023-04-06T08:44:58;19.80;;;8.13;;
34900;SDS011;21112;51.976;5.660;2023-04-06T08:47:25;21.80;;;8.75;;
34900;SDS011;21112;51.976;5.660;2023-04-06T08:49:56;19.88;;;8.85;;
34900;SDS011;21112;51.976;5.660;2023-04-06T08:52:26;19.00;;;8.60;;
34900;SDS011;21112;51.976;5.660;2023-04-06T08:54:56;23.67;;;9.20;;
34900;SDS011;21112;51.976;5.660;2023-04-06T08:57:24;20.65;;;9.65;;
34900;SDS011;21112;51.976;5.660;2023-04-06T08:59:51;20.08;;;8.95;;
34900;SDS011;21112;51.976;5.660;2023-04-06T09:02:20;20.95;;;9.23;;
34900;SDS011;21112;51.976;5.660;2023-04-06T09:04:47;21.10;;;9.48;;
34900;SDS011;21112;51.976;5.660;2023-04-06T09:07:18;25.90;;;9.50;;
34900;SDS011;21112;51.976;5.660;2023-04-06T09:09:47;19.55;;;9.25;;
34900;SDS011;21112;51.976;5.660;2023-04-06T09:12:24;16.48;;;8.00;;
34900;SDS011;21112;51.976;5.660;2023-04-06T09:14:52;18.20;;;8.90;;
34900;SDS011;21112;51.976;5.660;2023-04-06T09:17:21;20.48;;;8.82;;
34900;SDS011;21112;51.976;5.660;2023-04-06T09:19:53;17.70;;;8.65;;
34900;SDS011;21112;51.976;5.660;2023-04-06T09:22:34;17.38;;;8.38;;
34900;SDS011;21112;51.976;5.660;2023-04-06T09:25:01;18.77;;;8.93;;
34900;SDS011;21112;51.976;5.660;2023-04-06T09:27:34;19.33;;;9.20;;
34900;SDS011;21112;51.976;5.660;2023-04-06T09:30:04;20.17;;;9.23;;
34900;SDS011;21112;51.976;5.660;2023-04-06T09:32:43;17.77;;;8.43;;
34900;SDS011;21112;51.976;5.660;2023-04-06T09:35:11;19.88;;;9.10;;
34900;SDS011;21112;51.976;5.660;2023-04-06T09:37:44;20.52;;;9.00;;
34900;SDS011;21112;51.976;5.660;2023-04-06T09:40:14;22.60;;;9.15;;
34900;SDS011;21112;51.976;5.660;2023-04-06T09:42:50;22.20;;;9.40;;
34900;SDS011;21112;51.976;5.660;2023-04-06T09:45:19;22.13;;;9.10;;
34900;SDS011;21112;51.976;5.660;2023-04-06T09:47:46;19.58;;;8.68;;
34900;SDS011;21112;51.976;5.660;2023-04-06T09:50:13;19.50;;;9.10;;
34900;SDS011;21112;51.976;5.660;2023-04-06T09:52:50;23.50;;;9.88;;
34900;SDS011;21112;51.976;5.660;2023-04-06T09:55:20;21.45;;;9.60;;
34900;SDS011;21112;51.976;5.660;2023-04-06T09:57:53;17.77;;;9.10;;
34900;SDS011;21112;51.976;5.660;2023-04-06T10:00:27;23.42;;;9.18;;
34900;SDS011;21112;51.976;5.660;2023-04-06T10:02:56;24.27;;;10.80;;
34900;SDS011;21112;51.976;5.660;2023-04-06T10:05:27;22.45;;;9.48;;
34900;SDS011;21112;51.976;5.660;2023-04-06T10:08:04;23.23;;;9.75;;
34900;SDS011;21112;51.976;5.660;2023-04-06T10:10:34;20.58;;;9.25;;
34900;SDS011;21112;51.976;5.660;2023-04-06T10:13:08;22.80;;;9.70;;
34900;SDS011;21112;51.976;5.660;2023-04-06T10:15:36;25.80;;;10.18;;
34900;SDS011;21112;51.976;5.660;2023-04-06T10:18:04;20.38;;;9.27;;
34900;SDS011;21112;51.976;5.660;2023-04-06T10:20:35;22.00;;;9.45;;
34900;SDS011;21112;51.976;5.660;2023-04-06T10:23:08;19.75;;;9.65;;
34900;SDS011;21112;51.976;5.660;2023-04-06T10:25:39;19.80;;;9.75;;
34900;SDS011;21112;51.976;5.660;2023-04-06T10:28:09;21.63;;;9.20;;
34900;SDS011;21112;51.976;5.660;2023-04-06T10:30:58;20.38;;;9.77;;
34900;SDS011;21112;51.976;5.660;2023-04-06T10:33:27;23.00;;;10.80;;
34900;SDS011;21112;51.976;5.660;2023-04-06T10:35:54;28.13;;;9.70;;
34900;SDS011;21112;51.976;5.660;2023-04-06T10:38:38;23.33;;;9.65;;
34900;SDS011;21112;51.976;5.660;2023-04-06T10:41:05;21.17;;;9.52;;
34900;SDS011;21112;51.976;5.660;2023-04-06T10:43:33;21.55;;;9.43;;
34900;SDS011;21112;51.976;5.660;2023-04-06T10:46:03;18.83;;;9.27;;
34900;SDS011;21112;51.976;5.660;2023-04-06T10:48:40;17.98;;;8.60;;
34900;SDS011;21112;51.976;5.660;2023-04-06T10:51:08;20.00;;;9.38;;
34900;SDS011;21112;51.976;5.660;2023-04-06T10:53:41;23.25;;;9.15;;
34900;SDS011;21112;51.976;5.660;2023-04-06T10:56:09;22.20;;;9.43;;
34900;SDS011;21112;51.976;5.660;2023-04-06T10:58:43;20.58;;;10.02;;
34900;SDS011;21112;51.976;5.660;2023-04-06T11:01:12;20.85;;;9.13;;
34900;SDS011;21112;51.976;5.660;2023-04-06T11:03:52;23.20;;;9.38;;
34900;SDS011;21112;51.976;5.660;2023-04-06T11:06:20;18.27;;;8.10;;
34900;SDS011;21112;51.976;5.660;2023-04-06T11:08:50;18.17;;;8.75;;
34900;SDS011;21112;51.976;5.660;2023-04-06T11:11:20;22.58;;;9.35;;
34900;SDS011;21112;51.976;5.660;2023-04-06T11:13:48;21.13;;;8.32;;
34900;SDS011;21112;51.976;5.660;2023-04-06T11:16:23;18.55;;;8.60;;
34900;SDS011;21112;51.976;5.660;2023-04-06T11:18:51;23.38;;;8.90;;
34900;SDS011;21112;51.976;5.660;2023-04-06T11:24:09;19.35;;;8.48;;
34900;SDS011;21112;51.976;5.660;2023-04-06T11:26:37;19.02;;;8.57;;
34900;SDS011;21112;51.976;5.660;2023-04-06T11:29:03;17.33;;;7.88;;
34900;SDS011;21112;51.976;5.660;2023-04-06T11:31:37;19.55;;;8.05;;
34900;SDS011;21112;51.976;5.660;2023-04-06T11:34:08;15.85;;;7.55;;
34900;SDS011;21112;51.976;5.660;2023-04-06T11:36:35;17.00;;;7.93;;
34900;SDS011;21112;51.976;5.660;2023-04-06T11:39:04;19.23;;;7.68;;
34900;SDS011;21112;51.976;5.660;2023-04-06T11:41:34;16.67;;;7.63;;
34900;SDS011;21112;51.976;5.660;2023-04-06T11:44:07;19.45;;;7.25;;
34900;SDS011;21112;51.976;5.660;2023-04-06T11:46:34;16.27;;;7.15;;
34900;SDS011;21112;51.976;5.660;2023-04-06T11:49:01;15.27;;;6.90;;
34900;SDS011;21112;51.976;5.660;2023-04-06T11:51:28;15.48;;;7.13;;
34900;SDS011;21112;51.976;5.660;2023-04-06T11:53:57;14.82;;;6.82;;
34900;SDS011;21112;51.976;5.660;2023-04-06T11:56:29;15.27;;;6.82;;
34900;SDS011;21112;51.976;5.660;2023-04-06T11:58:58;14.20;;;6.45;;
34900;SDS011;21112;51.976;5.660;2023-04-06T12:01:25;15.00;;;6.63;;
34900;SDS011;21112;51.976;5.660;2023-04-06T12:03:54;12.85;;;6.72;;
34900;SDS011;21112;51.976;5.660;2023-04-06T12:06:25;13.93;;;6.18;;
34900;SDS011;21112;51.976;5.660;2023-04-06T12:08:54;12.77;;;5.90;;
34900;SDS011;21112;51.976;5.660;2023-04-06T12:11:22;15.75;;;6.63;;
34900;SDS011;21112;51.976;5.660;2023-04-06T12:13:49;13.40;;;6.20;;
34900;SDS011;21112;51.976;5.660;2023-04-06T12:16:17;12.85;;;6.05;;
34900;SDS011;21112;51.976;5.660;2023-04-06T12:18:45;12.05;;;5.93;;
34900;SDS011;21112;51.976;5.660;2023-04-06T12:21:11;12.57;;;5.60;;
34900;SDS011;21112;51.976;5.660;2023-04-06T12:23:39;14.38;;;6.07;;
34900;SDS011;21112;51.976;5.660;2023-04-06T12:26:12;13.50;;;5.50;;
34900;SDS011;21112;51.976;5.660;2023-04-06T12:28:42;13.25;;;5.28;;
34900;SDS011;21112;51.976;5.660;2023-04-06T12:31:15;12.80;;;4.85;;
34900;SDS011;21112;51.976;5.660;2023-04-06T12:33:45;11.55;;;4.85;;
34900;SDS011;21112;51.976;5.660;2023-04-06T12:36:13;12.65;;;4.68;;
34900;SDS011;21112;51.976;5.660;2023-04-06T12:38:42;11.65;;;5.25;;
34900;SDS011;21112;51.976;5.660;2023-04-06T12:41:11;9.55;;;4.68;;
34900;SDS011;21112;51.976;5.660;2023-04-06T12:43:37;10.25;;;4.43;;
34900;SDS011;21112;51.976;5.660;2023-04-06T12:46:05;10.85;;;4.78;;
34900;SDS011;21112;51.976;5.660;2023-04-06T12:48:34;12.38;;;4.60;;
34900;SDS011;21112;51.976;5.660;2023-04-06T12:51:04;9.43;;;4.07;;
34900;SDS011;21112;51.976;5.660;2023-04-06T12:53:31;10.88;;;4.55;;
34900;SDS011;21112;51.976;5.660;2023-04-06T12:56:09;12.50;;;4.18;;
34900;SDS011;21112;51.976;5.660;2023-04-06T12:58:37;10.43;;;4.15;;
34900;SDS011;21112;51.976;5.660;2023-04-06T13:01:05;10.55;;;4.50;;
34900;SDS011;21112;51.976;5.660;2023-04-06T13:03:35;8.48;;;3.72;;
34900;SDS011;21112;51.976;5.660;2023-04-06T13:06:06;10.60;;;4.45;;
34900;SDS011;21112;51.976;5.660;2023-04-06T13:08:36;8.95;;;4.35;;
34900;SDS011;21112;51.976;5.660;2023-04-06T13:11:12;10.40;;;4.10;;
34900;SDS011;21112;51.976;5.660;2023-04-06T13:13:39;8.50;;;3.80;;
34900;SDS011;21112;51.976;5.660;2023-04-06T13:16:08;9.25;;;3.78;;
34900;SDS011;21112;51.976;5.660;2023-04-06T13:18:46;9.10;;;3.90;;
34900;SDS011;21112;51.976;5.660;2023-04-06T13:21:14;8.82;;;3.78;;
34900;SDS011;21112;51.976;5.660;2023-04-06T13:23:44;10.88;;;4.60;;
34900;SDS011;21112;51.976;5.660;2023-04-06T13:26:13;9.02;;;3.88;;
34900;SDS011;21112;51.976;5.660;2023-04-06T13:28:41;11.27;;;4.40;;
34900;SDS011;21112;51.976;5.660;2023-04-06T13:33:48;8.32;;;3.90;;
34900;SDS011;21112;51.976;5.660;2023-04-06T13:36:24;9.32;;;3.92;;
34900;SDS011;21112;51.976;5.660;2023-04-06T13:38:51;8.32;;;3.58;;
34900;SDS011;21112;51.976;5.660;2023-04-06T13:41:21;9.80;;;4.22;;
34900;SDS011;21112;51.976;5.660;2023-04-06T13:43:50;8.38;;;3.58;;
34900;SDS011;21112;51.976;5.660;2023-04-06T13:46:19;8.98;;;3.90;;
34900;SDS011;21112;51.976;5.660;2023-04-06T13:48:51;8.48;;;3.67;;
34900;SDS011;21112;51.976;5.660;2023-04-06T13:51:18;8.43;;;3.88;;
34900;SDS011;21112;51.976;5.660;2023-04-06T13:53:47;11.50;;;4.13;;
34900;SDS011;21112;51.976;5.660;2023-04-06T13:56:17;8.55;;;3.92;;
34900;SDS011;21112;51.976;5.660;2023-04-06T13:58:44;9.30;;;4.07;;
34900;SDS011;21112;51.976;5.660;2023-04-06T14:01:19;9.77;;;4.18;;
34900;SDS011;21112;51.976;5.660;2023-04-06T14:06:14;7.53;;;3.10;;
34900;SDS011;21112;51.976;5.660;2023-04-06T14:08:43;9.73;;;3.95;;
34900;SDS011;21112;51.976;5.660;2023-04-06T14:11:15;8.20;;;3.40;;
34900;SDS011;21112;51.976;5.660;2023-04-06T14:13:41;10.60;;;3.78;;
34900;SDS011;21112;51.976;5.660;2023-04-06T14:16:14;9.70;;;4.00;;
34900;SDS011;21112;51.976;5.660;2023-04-06T14:18:47;12.30;;;3.85;;
34900;SDS011;21112;51.976;5.660;2023-04-06T14:21:16;7.03;;;3.58;;
34900;SDS011;21112;51.976;5.660;2023-04-06T14:23:49;10.32;;;4.10;;
34900;SDS011;21112;51.976;5.660;2023-04-06T14:26:19;8.82;;;3.67;;
34900;SDS011;21112;51.976;5.660;2023-04-06T14:28:46;8.60;;;3.60;;
34900;SDS011;21112;51.976;5.660;2023-04-06T14:31:15;11.38;;;4.25;;
34900;SDS011;21112;51.976;5.660;2023-04-06T14:33:42;7.90;;;3.45;;
34900;SDS011;21112;51.976;5.660;2023-04-06T14:36:19;9.10;;;4.10;;
34900;SDS011;21112;51.976;5.660;2023-04-06T14:38:49;9.48;;;4.13;;
34900;SDS011;21112;51.976;5.660;2023-04-06T14:41:20;10.15;;;4.10;;
34900;SDS011;21112;51.976;5.660;2023-04-06T14:43:50;11.02;;;4.22;;
34900;SDS011;21112;51.976;5.660;2023-04-06T14:46:20;11.07;;;4.38;;
34900;SDS011;21112;51.976;5.660;2023-04-06T14:48:49;9.30;;;4.07;;
34900;SDS011;21112;51.976;5.660;2023-04-06T14:51:18;10.95;;;4.15;;
34900;SDS011;21112;51.976;5.660;2023-04-06T14:53:52;8.95;;;4.40;;